Impacts TAF Board
For situational awareness. Not to be used for flight planning purposes.
IDs:

KSAT - San Antonio Intl, TX, US

Issued at 1132 UTC 14 Dec 2019
Updated at 1350 UTC 14 Dec 2019
Potential Impact None Slight Moderate High
Time1251Z 14/14Z 14/15Z 14/16Z 14/17Z 14/18Z 14/19Z 14/20Z 14/21Z 14/22Z 14/23Z 15/00Z 15/01Z 15/02Z>>
Type OBS PRVL PRVL PRVL PRVL PRVL PRVL PRVL PRVL PRVL PRVL PRVL PRVL PRVL
VIS 10 >6 >6 >6 >6 >6 >6 >6 >6 >6 >6 >6 >6 >6
CIG -- -- -- -- -- -- -- -- -- -- -- -- -- --
Cover FEW SKC SKC SKC SKC SKC SKC SKC SKC SKC SKC SKC SKC SKC
FltCat VFR VFR VFR VFR VFR VFR VFR VFR VFR VFR VFR VFR VFR VFR
WX -- -- -- -- -- -- -- -- -- -- -- -- -- --
WDir 290 300 170 170 170 170 170 170 170 170 170 170 170 170
WSpd 6 4 7 7 7 7 7 7 7 7 7 7 7 7
WGst -- -- -- -- -- -- -- -- -- -- -- -- -- --
Raw TAF
KSAT 141132Z 1412/1518 30004KT P6SM SKC
  FM141500 17007KT P6SM SKC


Raw METAR
KSAT 141251Z 29006KT 10SM FEW250 07/03 A2987 RMK AO2 SLP103 T00720028
KSAT 141151Z 30006KT 10SM FEW250 08/03 A2987 RMK AO2 SLP102 T00830033 10122 20078 55004
KSAT 141051Z 31005KT 10SM FEW250 08/03 A2986 RMK AO2 SLP099 T00830033

METAR Board
Radar Display
Forecast Discussion
For situational awareness. Not to be used for flight planning purposes.